Terminal Aerodrome Forecast
Issued by NWS

Home | Current Version | Previous Version | Graphics & Text | Print | Product List | Glossary On
Versions: 1 2 3 4 5 6 7 8 9 10 11 12 13 14 15 16
000
FTUS43 KBIS 090500
TAFJMS
TAF
KJMS 090537Z 0906/1006 32005KT 5SM FU SCT070
     FM091200 VRB03KT 4SM FU SKC
     FM091600 06006KT P6SM FEW040
     FM092000 14008KT P6SM SCT050=

USA.gov is the U.S. government's official web portal to all federal, state and local government web resources and services.